Time;durP1;ratioP1;P1;durP2;ratioP2;P2;SDS_P1;SDS_P2;PMS_P1;PMS_P2;Temp;Humidity;BMP_temperature;BMP_pressure;BME280_temperature;BME280_humidity;BME280_pressure;Samples;Min_cycle;Max_cycle;Signal;HPM_P1;HPM_P2
2021/06/13 00:00:13;;;;;;;8.60;7.57;;;;;;;;;;5062327;28;20254;-86
2021/06/13 00:02:39;;;;;;;8.40;7.23;;;;;;;;;;5074199;28;20167;-91
2021/06/13 00:05:07;;;;;;;8.20;7.13;;;;;;;;;;5039578;28;20176;-91
2021/06/13 00:07:33;;;;;;;11.17;7.60;;;;;;;;;;5057039;28;20168;-91
2021/06/13 00:09:58;;;;;;;8.73;7.27;;;;;;;;;;5057151;28;20652;-91
2021/06/13 00:12:23;;;;;;;10.43;7.50;;;;;;;;;;5055870;28;20231;-90
2021/06/13 00:14:49;;;;;;;10.70;7.33;;;;;;;;;;5036680;28;20534;-91
2021/06/13 00:17:16;;;;;;;11.93;7.53;;;;;;;;;;5055289;28;20217;-91
2021/06/13 00:19:42;;;;;;;9.53;7.30;;;;;;;;;;5055304;28;20614;-90
2021/06/13 00:22:07;;;;;;;8.93;7.43;;;;;;;;;;5037431;28;20183;-91
2021/06/13 00:24:32;;;;;;;10.33;7.50;;;;;;;;;;5037395;28;20183;-91
2021/06/13 00:26:58;;;;;;;9.70;7.50;;;;;;;;;;5055146;28;20711;-89
2021/06/13 00:29:23;;;;;;;12.90;7.73;;;;;;;;;;5054871;28;20175;-89
2021/06/13 00:31:49;;;;;;;10.07;7.40;;;;;;;;;;5054898;28;20199;-87
2021/06/13 00:34:14;;;;;;;9.80;7.50;;;;;;;;;;5055007;28;20211;-87
2021/06/13 00:36:40;;;;;;;9.47;7.33;;;;;;;;;;5054729;28;20578;-87
2021/06/13 00:39:05;;;;;;;10.00;7.13;;;;;;;;;;5055211;28;20230;-87
2021/06/13 00:41:30;;;;;;;8.33;7.53;;;;;;;;;;5054931;28;20602;-87
2021/06/13 00:43:56;;;;;;;8.63;7.73;;;;;;;;;;5055104;28;20183;-87
2021/06/13 00:46:21;;;;;;;8.00;7.20;;;;;;;;;;5054413;28;20294;-88
2021/06/13 00:48:46;;;;;;;8.07;7.27;;;;;;;;;;5054419;28;20204;-89
2021/06/13 00:51:12;;;;;;;7.73;6.87;;;;;;;;;;5054711;28;20559;-88
2021/06/13 00:53:37;;;;;;;9.03;7.30;;;;;;;;;;5054403;28;20651;-88
2021/06/13 00:56:03;;;;;;;8.10;6.57;;;;;;;;;;5054328;28;20329;-88
2021/06/13 00:58:28;;;;;;;9.30;7.17;;;;;;;;;;5054661;28;20249;-87
2021/06/13 01:00:54;;;;;;;9.07;6.90;;;;;;;;;;5054803;28;20199;-87
2021/06/13 01:03:19;;;;;;;7.63;6.70;;;;;;;;;;5046258;28;20251;-88
2021/06/13 01:05:45;;;;;;;8.00;7.07;;;;;;;;;;5054389;28;20546;-87
2021/06/13 01:08:13;;;;;;;7.60;6.90;;;;;;;;;;5054709;28;20176;-87
2021/06/13 01:10:49;;;;;;;7.77;6.97;;;;;;;;;;5054423;28;20220;-86
2021/06/13 01:13:33;;;;;;;8.00;7.20;;;;;;;;;;5054925;28;20162;-89
2021/06/13 01:16:05;;;;;;;8.97;7.07;;;;;;;;;;5036289;28;20182;-90
2021/06/13 01:18:38;;;;;;;10.20;7.50;;;;;;;;;;5036806;28;20512;-89
2021/06/13 01:21:08;;;;;;;13.00;7.60;;;;;;;;;;5055133;28;20642;-88
2021/06/13 01:23:40;;;;;;;8.97;7.03;;;;;;;;;;5054163;28;20257;-89
2021/06/13 01:26:19;;;;;;;9.63;7.43;;;;;;;;;;5054040;28;20180;-90
2021/06/13 01:28:55;;;;;;;9.50;7.20;;;;;;;;;;5054419;28;20659;-89
2021/06/13 01:31:40;;;;;;;8.80;7.03;;;;;;;;;;5054017;28;20163;-87
2021/06/13 01:34:10;;;;;;;7.77;7.03;;;;;;;;;;5039509;28;20191;-87
2021/06/13 01:36:36;;;;;;;8.10;7.30;;;;;;;;;;5053857;28;20563;-87
2021/06/13 01:39:02;;;;;;;9.47;7.00;;;;;;;;;;5053912;28;20174;-86
2021/06/13 01:41:30;;;;;;;8.50;6.93;;;;;;;;;;5053915;28;20174;-87
2021/06/13 01:43:57;;;;;;;8.90;7.30;;;;;;;;;;5053530;28;20168;-89
2021/06/13 01:46:23;;;;;;;8.23;6.97;;;;;;;;;;5053865;28;20249;-88
2021/06/13 01:48:51;;;;;;;7.93;7.13;;;;;;;;;;5053543;28;20168;-88
2021/06/13 01:51:16;;;;;;;8.17;6.73;;;;;;;;;;5054276;28;20168;-87
2021/06/13 01:53:43;;;;;;;8.17;6.60;;;;;;;;;;5053453;28;20175;-87
2021/06/13 01:56:13;;;;;;;9.20;6.60;;;;;;;;;;5035870;28;20704;-86
2021/06/13 01:58:40;;;;;;;8.87;6.47;;;;;;;;;;5053604;28;20241;-87
2021/06/13 02:01:07;;;;;;;8.67;6.30;;;;;;;;;;5035941;28;20172;-87
2021/06/13 02:03:34;;;;;;;8.00;6.40;;;;;;;;;;5054189;28;20168;-86
2021/06/13 02:06:01;;;;;;;8.10;6.30;;;;;;;;;;5053299;28;20604;-88
2021/06/13 02:08:26;;;;;;;10.90;7.07;;;;;;;;;;5035777;28;20164;-87
2021/06/13 02:10:52;;;;;;;8.47;6.47;;;;;;;;;;5053567;28;20224;-87
2021/06/13 02:13:18;;;;;;;8.77;7.10;;;;;;;;;;5053482;28;20174;-87
2021/06/13 02:15:44;;;;;;;9.60;6.07;;;;;;;;;;5053267;28;20244;-86
2021/06/13 02:18:11;;;;;;;7.37;5.93;;;;;;;;;;5054039;28;20482;-86
2021/06/13 02:20:37;;;;;;;10.37;6.43;;;;;;;;;;5053216;28;20255;-86
2021/06/13 02:23:03;;;;;;;7.47;6.47;;;;;;;;;;5053153;28;20253;-86
2021/06/13 02:25:28;;;;;;;9.23;6.17;;;;;;;;;;5053122;28;20227;-87
2021/06/13 02:27:58;;;;;;;8.27;6.77;;;;;;;;;;5053661;28;20180;-88
2021/06/13 02:30:24;;;;;;;7.60;6.27;;;;;;;;;;5053515;28;20186;-87
2021/06/13 02:32:50;;;;;;;8.67;6.07;;;;;;;;;;5053441;28;20526;-86
2021/06/13 02:35:16;;;;;;;8.33;5.73;;;;;;;;;;5053700;28;20172;-86
2021/06/13 02:37:43;;;;;;;6.97;5.90;;;;;;;;;;5053697;28;20180;-86
2021/06/13 02:40:09;;;;;;;10.63;6.20;;;;;;;;;;5057487;28;20175;-87
2021/06/13 02:42:35;;;;;;;8.40;6.23;;;;;;;;;;5057319;28;20255;-86
2021/06/13 02:45:00;;;;;;;11.27;6.17;;;;;;;;;;5056778;28;20634;-87
2021/06/13 02:47:25;;;;;;;7.47;5.67;;;;;;;;;;5057023;28;20239;-88
2021/06/13 02:49:51;;;;;;;7.27;5.83;;;;;;;;;;5056818;28;20178;-87
2021/06/13 02:52:19;;;;;;;7.80;5.80;;;;;;;;;;5057018;28;20172;-87
2021/06/13 02:54:45;;;;;;;8.67;6.07;;;;;;;;;;5057238;28;20660;-87
2021/06/13 02:57:30;;;;;;;9.13;5.90;;;;;;;;;;5039062;28;20180;-87
2021/06/13 02:59:58;;;;;;;7.90;5.77;;;;;;;;;;5056329;28;20565;-87
2021/06/13 03:02:25;;;;;;;9.73;5.40;;;;;;;;;;5056515;28;20199;-87
2021/06/13 03:04:51;;;;;;;7.63;5.60;;;;;;;;;;5056469;28;20172;-87
2021/06/13 03:07:17;;;;;;;9.60;4.90;;;;;;;;;;5056733;28;20283;-87
2021/06/13 03:09:42;;;;;;;10.90;5.77;;;;;;;;;;5056995;28;20167;-90
2021/06/13 03:12:08;;;;;;;10.40;5.40;;;;;;;;;;5056651;28;20231;-88
2021/06/13 03:14:35;;;;;;;8.63;5.43;;;;;;;;;;5056852;28;20527;-88
2021/06/13 03:17:01;;;;;;;6.13;5.30;;;;;;;;;;5056505;28;20176;-88
2021/06/13 03:19:27;;;;;;;7.43;5.30;;;;;;;;;;5056214;28;20178;-88
2021/06/13 03:21:53;;;;;;;9.30;5.13;;;;;;;;;;5056667;28;20199;-87
2021/06/13 03:24:20;;;;;;;6.23;5.07;;;;;;;;;;5056214;28;20199;-87
2021/06/13 03:26:46;;;;;;;6.57;4.70;;;;;;;;;;5056218;28;20206;-85
2021/06/13 03:29:12;;;;;;;6.47;4.73;;;;;;;;;;5056390;28;20168;-85
2021/06/13 03:31:38;;;;;;;5.70;4.50;;;;;;;;;;5056050;28;20563;-86
2021/06/13 03:34:05;;;;;;;7.23;4.60;;;;;;;;;;5056245;28;20211;-87
2021/06/13 03:36:31;;;;;;;6.13;4.70;;;;;;;;;;5056170;28;20252;-88
2021/06/13 03:38:57;;;;;;;5.20;4.70;;;;;;;;;;5056412;28;20615;-88
2021/06/13 03:41:24;;;;;;;7.47;4.57;;;;;;;;;;5056124;28;20179;-88
2021/06/13 03:43:49;;;;;;;5.13;4.50;;;;;;;;;;5056038;28;20255;-88
2021/06/13 03:46:16;;;;;;;5.30;4.50;;;;;;;;;;5055628;28;20353;-89
2021/06/13 03:48:42;;;;;;;6.10;4.40;;;;;;;;;;5056284;28;20172;-88
2021/06/13 03:51:09;;;;;;;7.50;4.60;;;;;;;;;;5055899;28;20172;-88
2021/06/13 03:53:46;;;;;;;7.73;4.77;;;;;;;;;;5055554;28;20170;-87
2021/06/13 03:56:12;;;;;;;5.13;4.57;;;;;;;;;;5056166;28;20248;-86
2021/06/13 03:58:38;;;;;;;6.10;4.40;;;;;;;;;;5055774;28;20322;-85
2021/06/13 04:01:03;;;;;;;7.30;4.67;;;;;;;;;;5055480;28;20263;-87
2021/06/13 04:03:29;;;;;;;7.00;4.30;;;;;;;;;;5056044;28;20275;-89
2021/06/13 04:05:55;;;;;;;7.47;4.40;;;;;;;;;;5055864;28;20220;-89
2021/06/13 04:08:21;;;;;;;7.77;4.40;;;;;;;;;;5055630;28;20607;-89
2021/06/13 04:10:50;;;;;;;6.00;4.73;;;;;;;;;;5055222;28;20219;-89
2021/06/13 04:13:15;;;;;;;8.17;4.03;;;;;;;;;;5056049;28;20172;-89
2021/06/13 04:15:41;;;;;;;8.80;4.30;;;;;;;;;;5055425;28;20578;-88
2021/06/13 04:18:08;;;;;;;8.13;4.63;;;;;;;;;;5055386;28;20174;-89
2021/06/13 04:20:34;;;;;;;6.93;4.40;;;;;;;;;;5055421;28;20172;-90
2021/06/13 04:23:00;;;;;;;7.83;4.50;;;;;;;;;;5055275;28;20168;-89
2021/06/13 04:25:26;;;;;;;6.00;4.20;;;;;;;;;;5054830;28;20206;-89
2021/06/13 04:27:53;;;;;;;6.63;4.13;;;;;;;;;;5054870;28;20172;-88
2021/06/13 04:30:19;;;;;;;6.03;4.17;;;;;;;;;;5055093;28;20221;-89
2021/06/13 04:32:44;;;;;;;4.35;3.80;;;;;;;;;;5055172;28;20176;-89
2021/06/13 04:35:09;;;;;;;5.00;3.65;;;;;;;;;;5055347;28;20172;-90
2021/06/13 04:37:34;;;;;;;4.10;3.70;;;;;;;;;;5054799;28;20170;-89
2021/06/13 04:40:00;;;;;;;5.45;4.07;;;;;;;;;;5037190;28;20182;-89
2021/06/13 04:42:25;;;;;;;4.93;3.40;;;;;;;;;;5055021;28;20172;-90
2021/06/13 04:44:50;;;;;;;6.97;4.03;;;;;;;;;;5054627;28;20263;-90
2021/06/13 04:47:16;;;;;;;6.78;3.60;;;;;;;;;;5054779;28;20681;-90
2021/06/13 04:49:42;;;;;;;6.13;4.03;;;;;;;;;;5054850;28;20275;-90
2021/06/13 04:52:11;;;;;;;6.78;4.22;;;;;;;;;;5055019;28;20168;-89
2021/06/13 04:54:36;;;;;;;4.73;3.93;;;;;;;;;;5054953;28;20574;-89
2021/06/13 04:57:17;;;;;;;9.33;4.10;;;;;;;;;;5054469;28;20219;-89
2021/06/13 04:59:42;;;;;;;6.70;3.90;;;;;;;;;;5054341;28;20218;-89
2021/06/13 05:02:08;;;;;;;7.67;4.23;;;;;;;;;;5053724;28;20176;-89
2021/06/13 05:04:33;;;;;;;7.77;4.40;;;;;;;;;;5054490;28;20213;-89
2021/06/13 05:07:03;;;;;;;7.60;4.30;;;;;;;;;;5054070;28;20299;-89
2021/06/13 05:09:28;;;;;;;9.17;4.60;;;;;;;;;;5054378;28;20180;-89
2021/06/13 05:11:53;;;;;;;5.63;4.73;;;;;;;;;;5036064;28;20250;-88
2021/06/13 05:14:19;;;;;;;7.97;4.40;;;;;;;;;;5054353;28;20179;-88
2021/06/13 05:16:44;;;;;;;9.00;4.70;;;;;;;;;;5054554;28;20260;-88
2021/06/13 05:19:09;;;;;;;7.30;4.30;;;;;;;;;;5054537;28;20310;-90
2021/06/13 05:21:35;;;;;;;7.63;4.50;;;;;;;;;;5054295;28;20164;-91
2021/06/13 05:24:01;;;;;;;6.83;4.57;;;;;;;;;;5036295;28;20187;-90
2021/06/13 05:26:27;;;;;;;4.87;4.30;;;;;;;;;;5053740;28;20617;-90
2021/06/13 05:28:52;;;;;;;7.20;4.13;;;;;;;;;;5036474;28;20167;-89
2021/06/13 05:31:18;;;;;;;7.10;4.10;;;;;;;;;;5054089;28;20521;-89
2021/06/13 05:33:43;;;;;;;7.23;4.17;;;;;;;;;;5036125;28;20187;-89
2021/06/13 05:36:08;;;;;;;6.30;4.13;;;;;;;;;;5053908;28;20180;-88
2021/06/13 05:38:34;;;;;;;7.53;4.57;;;;;;;;;;5053683;28;20507;-88
2021/06/13 05:40:59;;;;;;;5.40;4.30;;;;;;;;;;5054102;28;20621;-88
2021/06/13 05:43:24;;;;;;;6.37;4.17;;;;;;;;;;5059049;28;20168;-86
2021/06/13 05:45:49;;;;;;;8.43;4.43;;;;;;;;;;5077795;28;20199;-86
2021/06/13 05:48:15;;;;;;;7.93;4.40;;;;;;;;;;5069424;28;20561;-85
2021/06/13 05:50:40;;;;;;;8.73;4.63;;;;;;;;;;5063644;28;20613;-87
2021/06/13 05:53:06;;;;;;;9.77;4.63;;;;;;;;;;5054413;28;20210;-88
2021/06/13 05:55:31;;;;;;;9.13;4.53;;;;;;;;;;5054678;28;20225;-89
2021/06/13 05:57:57;;;;;;;5.47;4.63;;;;;;;;;;5055589;28;20168;-90
2021/06/13 06:00:23;;;;;;;7.83;4.13;;;;;;;;;;5053730;28;20187;-91
2021/06/13 06:02:49;;;;;;;7.37;4.40;;;;;;;;;;5054091;28;20179;-91
2021/06/13 06:05:15;;;;;;;9.73;4.43;;;;;;;;;;5035657;28;20179;-89
2021/06/13 06:07:40;;;;;;;6.87;4.10;;;;;;;;;;5054227;28;20176;-90
2021/06/13 06:10:06;;;;;;;7.23;4.40;;;;;;;;;;5054226;28;20255;-90
2021/06/13 06:12:32;;;;;;;5.10;4.10;;;;;;;;;;5053965;28;20285;-90
2021/06/13 06:14:57;;;;;;;6.17;4.10;;;;;;;;;;5057119;28;20190;-90
2021/06/13 06:17:23;;;;;;;7.53;4.43;;;;;;;;;;5057962;28;20238;-91
2021/06/13 06:19:48;;;;;;;5.57;4.20;;;;;;;;;;5058328;28;20218;-91
2021/06/13 06:22:13;;;;;;;6.97;4.30;;;;;;;;;;5057706;28;20229;-89
2021/06/13 06:24:39;;;;;;;7.10;4.07;;;;;;;;;;5039581;28;20530;-89
2021/06/13 06:27:04;;;;;;;6.30;4.20;;;;;;;;;;5057714;28;20235;-91
2021/06/13 06:29:30;;;;;;;7.20;4.20;;;;;;;;;;5040383;28;20250;-94
2021/06/13 06:31:55;;;;;;;9.03;4.20;;;;;;;;;;5039786;28;20179;-89
2021/06/13 06:34:20;;;;;;;7.67;4.60;;;;;;;;;;5057188;28;20218;-91
2021/06/13 06:36:46;;;;;;;7.63;4.20;;;;;;;;;;5039890;28;20317;-90
2021/06/13 06:39:12;;;;;;;8.20;4.13;;;;;;;;;;5057329;28;20176;-90
2021/06/13 06:41:38;;;;;;;6.80;4.47;;;;;;;;;;5039446;28;20232;-86
2021/06/13 06:44:04;;;;;;;6.87;4.27;;;;;;;;;;5057449;28;20525;-86
2021/06/13 06:46:29;;;;;;;7.17;3.83;;;;;;;;;;5057426;28;20200;-87
2021/06/13 06:48:55;;;;;;;7.17;3.90;;;;;;;;;;5056921;28;20211;-87
2021/06/13 06:51:20;;;;;;;5.77;3.90;;;;;;;;;;5057241;28;20242;-90
2021/06/13 06:53:46;;;;;;;6.57;4.30;;;;;;;;;;5056756;28;20175;-90
2021/06/13 06:56:11;;;;;;;9.07;4.10;;;;;;;;;;5039924;28;20207;-90
2021/06/13 06:58:36;;;;;;;4.03;3.60;;;;;;;;;;5056914;28;20664;-94
2021/06/13 07:01:01;;;;;;;7.27;4.63;;;;;;;;;;5039158;28;20183;-89
2021/06/13 07:03:27;;;;;;;7.10;3.60;;;;;;;;;;5056644;28;20521;-90
2021/06/13 07:05:52;;;;;;;6.93;4.10;;;;;;;;;;5056689;28;20203;-91
2021/06/13 07:08:17;;;;;;;7.47;4.17;;;;;;;;;;5039074;28;20172;-90
2021/06/13 07:10:42;;;;;;;9.37;4.40;;;;;;;;;;5045662;28;20598;-92
2021/06/13 07:13:08;;;;;;;8.43;4.23;;;;;;;;;;5034118;28;20172;-91
2021/06/13 07:15:34;;;;;;;7.07;4.30;;;;;;;;;;5038877;28;20256;-91
2021/06/13 07:17:59;;;;;;;7.50;4.20;;;;;;;;;;5049795;28;20690;-90
2021/06/13 07:20:25;;;;;;;6.03;4.20;;;;;;;;;;5024484;28;20181;-91
2021/06/13 07:22:50;;;;;;;5.53;4.20;;;;;;;;;;5030722;28;20180;-91
2021/06/13 07:25:15;;;;;;;7.30;4.20;;;;;;;;;;5040263;28;20184;-93
2021/06/13 07:27:41;;;;;;;7.73;3.83;;;;;;;;;;5015772;28;20181;-94
2021/06/13 07:30:23;;;;;;;8.53;4.03;;;;;;;;;;5025932;28;20631;-96
2021/06/13 07:32:50;;;;;;;8.10;3.90;;;;;;;;;;5018440;28;20211;-95
2021/06/13 07:35:17;;;;;;;5.97;4.17;;;;;;;;;;5019303;28;20594;-91
2021/06/13 07:37:43;;;;;;;8.83;3.97;;;;;;;;;;5018543;28;20176;-89
2021/06/13 07:40:08;;;;;;;9.20;4.27;;;;;;;;;;5036321;28;20191;-92
2021/06/13 07:42:34;;;;;;;7.07;4.13;;;;;;;;;;5018319;28;20651;-93
2021/06/13 07:44:59;;;;;;;5.63;4.00;;;;;;;;;;5036301;28;20179;-89
2021/06/13 07:47:25;;;;;;;5.67;4.13;;;;;;;;;;5036068;28;20200;-89
2021/06/13 07:49:50;;;;;;;6.40;4.43;;;;;;;;;;5036354;28;20206;-92
2021/06/13 07:52:16;;;;;;;6.53;4.03;;;;;;;;;;5018371;28;20226;-92
2021/06/13 07:54:41;;;;;;;7.47;4.00;;;;;;;;;;5018664;28;20627;-91
2021/06/13 07:57:06;;;;;;;7.87;4.30;;;;;;;;;;5036123;28;20172;-92
2021/06/13 07:59:32;;;;;;;8.30;3.90;;;;;;;;;;5037642;28;20185;-92
2021/06/13 08:01:57;;;;;;;6.97;4.50;;;;;;;;;;5019866;28;20323;-90
2021/06/13 08:04:23;;;;;;;7.17;4.00;;;;;;;;;;5041997;28;20169;-90
2021/06/13 08:06:48;;;;;;;7.07;4.00;;;;;;;;;;5036804;28;20189;-93
2021/06/13 08:09:15;;;;;;;7.78;4.05;;;;;;;;;;5033059;28;20186;-92
2021/06/13 08:11:40;;;;;;;6.15;3.83;;;;;;;;;;5055395;28;20223;-95
2021/06/13 08:14:07;;;;;;;6.60;3.97;;;;;;;;;;5037228;28;20210;-95
2021/06/13 08:16:33;;;;;;;5.53;3.83;;;;;;;;;;5055693;28;20175;-94
2021/06/13 08:19:01;;;;;;;8.73;3.95;;;;;;;;;;5031695;28;20689;-96
2021/06/13 08:21:26;;;;;;;6.30;4.00;;;;;;;;;;5018959;28;20184;-90
2021/06/13 08:23:51;;;;;;;4.90;3.63;;;;;;;;;;5034805;28;20259;-90
2021/06/13 08:26:17;;;;;;;6.50;4.07;;;;;;;;;;5054878;28;20211;-91
2021/06/13 08:28:42;;;;;;;6.65;3.78;;;;;;;;;;5049650;28;20500;-89
2021/06/13 08:31:07;;;;;;;6.78;4.00;;;;;;;;;;5037449;28;20176;-88
2021/06/13 08:33:33;;;;;;;4.97;3.70;;;;;;;;;;5054879;28;20168;-89
2021/06/13 08:35:58;;;;;;;5.55;3.80;;;;;;;;;;5054054;28;20176;-90
2021/06/13 08:38:24;;;;;;;6.93;3.80;;;;;;;;;;5055055;28;20184;-88
2021/06/13 08:40:50;;;;;;;8.27;4.18;;;;;;;;;;5073727;28;20168;-88
2021/06/13 08:43:15;;;;;;;6.30;4.30;;;;;;;;;;5078838;28;20179;-87
2021/06/13 08:45:40;;;;;;;7.03;4.03;;;;;;;;;;5079258;28;20184;-88
2021/06/13 08:48:07;;;;;;;4.37;3.83;;;;;;;;;;5074455;28;20179;-89
2021/06/13 08:50:34;;;;;;;8.37;3.97;;;;;;;;;;5073139;28;20183;-89
2021/06/13 08:52:59;;;;;;;6.70;4.45;;;;;;;;;;5065949;28;20222;-91
2021/06/13 08:55:24;;;;;;;7.07;4.30;;;;;;;;;;5054982;28;20572;-91
2021/06/13 08:57:51;;;;;;;7.30;3.83;;;;;;;;;;5054325;28;20229;-90
2021/06/13 09:00:19;;;;;;;6.40;4.27;;;;;;;;;;5054207;28;20192;-91
2021/06/13 09:02:45;;;;;;;9.33;4.30;;;;;;;;;;5054275;28;20176;-92
2021/06/13 09:05:12;;;;;;;6.80;4.07;;;;;;;;;;5036734;28;20179;-92
2021/06/13 09:07:51;;;;;;;7.83;4.20;;;;;;;;;;5054410;28;20207;-90
2021/06/13 09:10:20;;;;;;;5.60;4.20;;;;;;;;;;5054477;28;20167;-86
2021/06/13 09:12:46;;;;;;;7.33;4.10;;;;;;;;;;5034974;28;20179;-86
2021/06/13 09:15:11;;;;;;;8.27;4.00;;;;;;;;;;5052102;28;20234;-86
2021/06/13 09:17:41;;;;;;;5.97;3.80;;;;;;;;;;5052376;28;20176;-86
2021/06/13 09:20:19;;;;;;;7.83;4.23;;;;;;;;;;5052524;28;20229;-87
2021/06/13 09:23:05;;;;;;;5.47;4.10;;;;;;;;;;5041817;28;20186;-88
2021/06/13 09:25:31;;;;;;;5.80;4.00;;;;;;;;;;5036857;28;20211;-87
2021/06/13 09:28:07;;;;;;;5.30;3.93;;;;;;;;;;5052264;28;20195;-87
2021/06/13 09:30:34;;;;;;;8.20;3.73;;;;;;;;;;5017135;28;20172;-88
2021/06/13 09:33:01;;;;;;;8.20;4.20;;;;;;;;;;5049832;28;20637;-89
2021/06/13 09:35:29;;;;;;;7.07;4.20;;;;;;;;;;5073656;28;20171;-89
2021/06/13 09:38:07;;;;;;;8.60;4.10;;;;;;;;;;5066468;28;20176;-89
2021/06/13 09:40:33;;;;;;;9.43;4.70;;;;;;;;;;5038568;28;20175;-89
2021/06/13 09:43:17;;;;;;;6.17;4.20;;;;;;;;;;5053316;28;20645;-90
2021/06/13 09:45:50;;;;;;;6.17;4.10;;;;;;;;;;5046367;28;20289;-89
2021/06/13 09:48:16;;;;;;;6.70;4.30;;;;;;;;;;5053603;28;20618;-88
2021/06/13 09:50:43;;;;;;;8.83;4.30;;;;;;;;;;5053504;28;20175;-88
2021/06/13 09:53:28;;;;;;;7.40;4.30;;;;;;;;;;5053984;28;20172;-88
2021/06/13 09:56:02;;;;;;;10.17;4.53;;;;;;;;;;5049873;28;20638;-89
2021/06/13 09:58:28;;;;;;;7.57;4.00;;;;;;;;;;5053941;28;20564;-88
2021/06/13 10:00:53;;;;;;;7.37;4.00;;;;;;;;;;5053639;28;20172;-88
2021/06/13 10:03:22;;;;;;;10.40;4.73;;;;;;;;;;5053687;28;20174;-89
2021/06/13 10:05:57;;;;;;;11.13;4.10;;;;;;;;;;5045648;28;20242;-89
2021/06/13 10:08:25;;;;;;;9.13;4.23;;;;;;;;;;5053597;28;20176;-88
2021/06/13 10:10:53;;;;;;;7.93;4.20;;;;;;;;;;5053059;28;20231;-88
2021/06/13 10:13:18;;;;;;;9.57;4.50;;;;;;;;;;5053154;28;20179;-88
2021/06/13 10:15:50;;;;;;;7.87;4.53;;;;;;;;;;5053431;28;20176;-92
2021/06/13 10:18:15;;;;;;;6.80;4.17;;;;;;;;;;5035858;28;20176;-90
2021/06/13 10:20:41;;;;;;;6.20;3.93;;;;;;;;;;5053218;28;20514;-90
2021/06/13 10:23:06;;;;;;;10.13;4.67;;;;;;;;;;5053244;28;20175;-90
2021/06/13 10:25:31;;;;;;;8.57;4.77;;;;;;;;;;5053389;28;20179;-89
2021/06/13 10:27:57;;;;;;;9.57;4.30;;;;;;;;;;5053573;28;20629;-90
2021/06/13 10:30:23;;;;;;;5.67;4.30;;;;;;;;;;5046639;28;20172;-90
2021/06/13 10:32:48;;;;;;;5.50;4.43;;;;;;;;;;5033408;28;20252;-88
2021/06/13 10:35:15;;;;;;;7.73;4.63;;;;;;;;;;5033899;28;20272;-92
2021/06/13 10:37:41;;;;;;;7.47;4.33;;;;;;;;;;5032354;28;20181;-91
2021/06/13 10:40:06;;;;;;;6.90;4.50;;;;;;;;;;5033024;28;20187;-89
2021/06/13 10:42:36;;;;;;;7.67;4.83;;;;;;;;;;5033387;28;20227;-90
2021/06/13 10:45:01;;;;;;;8.53;4.70;;;;;;;;;;5033049;28;20632;-92
2021/06/13 10:47:28;;;;;;;5.97;4.50;;;;;;;;;;5032096;28;20215;-93
2021/06/13 10:49:54;;;;;;;5.70;4.17;;;;;;;;;;5014621;28;20185;-91
2021/06/13 10:52:20;;;;;;;8.90;4.20;;;;;;;;;;5032280;28;20256;-92
2021/06/13 10:54:54;;;;;;;7.87;4.10;;;;;;;;;;5032280;28;20267;-91
2021/06/13 10:57:19;;;;;;;8.13;4.23;;;;;;;;;;5030708;28;20223;-91
2021/06/13 10:59:45;;;;;;;9.40;4.47;;;;;;;;;;5038739;28;20227;-87
2021/06/13 11:02:17;;;;;;;8.67;4.57;;;;;;;;;;5055631;28;20222;-89
2021/06/13 11:04:42;;;;;;;6.40;4.43;;;;;;;;;;5055354;28;20168;-88
2021/06/13 11:07:07;;;;;;;6.90;4.07;;;;;;;;;;5056028;28;20283;-89
2021/06/13 11:09:33;;;;;;;9.60;4.37;;;;;;;;;;5056545;28;20172;-88
2021/06/13 11:11:58;;;;;;;6.20;4.47;;;;;;;;;;5056493;28;20543;-89
2021/06/13 11:14:26;;;;;;;6.43;4.53;;;;;;;;;;5056714;28;20171;-88
2021/06/13 11:16:52;;;;;;;9.10;4.43;;;;;;;;;;5056038;28;20172;-89
2021/06/13 11:19:28;;;;;;;7.77;4.17;;;;;;;;;;5038108;28;20644;-89
2021/06/13 11:22:12;;;;;;;7.63;4.30;;;;;;;;;;5026550;28;20176;-89
2021/06/13 11:24:45;;;;;;;9.97;4.17;;;;;;;;;;5042684;28;20169;-87
2021/06/13 11:27:10;;;;;;;6.30;4.30;;;;;;;;;;5001093;28;20209;-89
2021/06/13 11:29:54;;;;;;;6.33;4.27;;;;;;;;;;5064589;28;20243;-88
2021/06/13 11:32:38;;;;;;;8.17;4.50;;;;;;;;;;5080746;28;20156;-89
2021/06/13 11:35:42;;;;;;;5.93;4.03;;;;;;;;;;5074669;28;20175;-90
2021/06/13 11:38:10;;;;;;;8.53;4.40;;;;;;;;;;4961018;28;20183;-89
2021/06/13 11:40:55;;;;;;;5.70;3.80;;;;;;;;;;4976002;28;20254;-88
2021/06/13 11:43:22;;;;;;;6.00;4.37;;;;;;;;;;5024262;28;20188;-88
2021/06/13 12:31:26;;;;;;;5.90;4.70;;;;;;;;;;5659916;22;20334;-86
2021/06/13 12:33:52;;;;;;;10.60;4.97;;;;;;;;;;4936404;29;20200;-87
2021/06/13 12:36:17;;;;;;;7.93;4.70;;;;;;;;;;4936496;29;20168;-87
2021/06/13 12:38:43;;;;;;;7.10;4.53;;;;;;;;;;4937046;29;20179;-89
2021/06/13 12:41:10;;;;;;;8.60;4.67;;;;;;;;;;4932425;29;20176;-89
2021/06/13 12:43:48;;;;;;;5.57;4.30;;;;;;;;;;4918270;29;20180;-89
2021/06/13 12:46:14;;;;;;;8.90;4.70;;;;;;;;;;4932121;29;20187;-92
2021/06/13 12:48:42;;;;;;;9.57;4.63;;;;;;;;;;4920957;29;20331;-95
2021/06/13 12:51:08;;;;;;;9.17;4.37;;;;;;;;;;4921421;29;20642;-90
2021/06/13 12:53:43;;;;;;;8.67;4.70;;;;;;;;;;4937783;29;20279;-95
2021/06/13 12:56:09;;;;;;;6.10;4.33;;;;;;;;;;4921226;29;20189;-88
2021/06/13 12:58:40;;;;;;;7.83;4.20;;;;;;;;;;4931907;29;20627;-90
2021/06/13 13:01:07;;;;;;;10.40;4.20;;;;;;;;;;4916492;29;20514;-88
2021/06/13 13:03:42;;;;;;;6.47;4.37;;;;;;;;;;4919683;29;20215;-91
2021/06/13 13:06:08;;;;;;;6.97;4.23;;;;;;;;;;4919387;29;20235;-90
2021/06/13 13:08:47;;;;;;;7.37;4.37;;;;;;;;;;4936895;29;20182;-89
2021/06/13 13:11:21;;;;;;;7.37;4.40;;;;;;;;;;4937261;29;20182;-89
2021/06/13 13:13:50;;;;;;;6.70;4.70;;;;;;;;;;4937441;29;20227;-88
2021/06/13 13:16:24;;;;;;;6.53;4.07;;;;;;;;;;4938141;29;20645;-89
2021/06/13 13:18:49;;;;;;;6.47;4.27;;;;;;;;;;4937483;29;20635;-88
2021/06/13 13:21:27;;;;;;;5.93;4.33;;;;;;;;;;4937180;29;20172;-91
2021/06/13 13:23:53;;;;;;;6.53;4.20;;;;;;;;;;4937721;29;20207;-90
2021/06/13 13:26:19;;;;;;;5.57;3.80;;;;;;;;;;4920788;29;20215;-90
2021/06/13 13:28:51;;;;;;;6.87;4.37;;;;;;;;;;4905104;29;20589;-88
2021/06/13 13:31:26;;;;;;;6.53;4.20;;;;;;;;;;4912671;29;20237;-88
2021/06/13 13:34:03;;;;;;;5.63;4.50;;;;;;;;;;4918539;29;20174;-87
2021/06/13 13:36:32;;;;;;;4.83;4.13;;;;;;;;;;4918254;29;20176;-87
2021/06/13 13:38:57;;;;;;;5.03;3.70;;;;;;;;;;4918574;29;20177;-87
2021/06/13 13:41:33;;;;;;;10.87;4.60;;;;;;;;;;4918384;29;20236;-88
2021/06/13 13:44:02;;;;;;;6.90;4.67;;;;;;;;;;4917185;29;20201;-89
2021/06/13 13:46:37;;;;;;;7.50;4.00;;;;;;;;;;4916416;29;20204;-90
2021/06/13 13:49:03;;;;;;;8.13;3.70;;;;;;;;;;4916503;29;20163;-88
2021/06/13 13:51:29;;;;;;;5.10;3.50;;;;;;;;;;4898463;29;20273;-88
2021/06/13 13:53:55;;;;;;;8.87;3.73;;;;;;;;;;4895118;29;20285;-90
2021/06/13 13:56:21;;;;;;;9.63;4.03;;;;;;;;;;4896056;29;20185;-89
2021/06/13 13:58:48;;;;;;;8.80;4.00;;;;;;;;;;4895556;29;20185;-88
2021/06/13 14:01:14;;;;;;;7.93;3.80;;;;;;;;;;4895060;29;20617;-90
2021/06/13 14:03:39;;;;;;;7.30;3.90;;;;;;;;;;4897172;29;20259;-87
2021/06/13 14:06:05;;;;;;;6.07;3.80;;;;;;;;;;4897177;29;20201;-89
2021/06/13 14:08:40;;;;;;;4.33;3.80;;;;;;;;;;4913053;29;20179;-88
2021/06/13 14:11:06;;;;;;;7.33;3.53;;;;;;;;;;4914842;29;20223;-90
2021/06/13 14:13:31;;;;;;;8.53;4.27;;;;;;;;;;4917102;29;20181;-92
2021/06/13 14:15:56;;;;;;;5.70;3.60;;;;;;;;;;4914489;29;20180;-90
2021/06/13 14:18:22;;;;;;;11.93;4.00;;;;;;;;;;4917051;29;20184;-90
2021/06/13 14:20:50;;;;;;;7.77;3.90;;;;;;;;;;4915949;29;20172;-89
2021/06/13 14:23:15;;;;;;;8.13;4.67;;;;;;;;;;4916080;29;20173;-88
2021/06/13 14:25:41;;;;;;;6.33;3.80;;;;;;;;;;4899637;29;20538;-87
2021/06/13 14:28:08;;;;;;;7.30;4.20;;;;;;;;;;4916986;29;20522;-89
2021/06/13 14:30:34;;;;;;;5.97;4.20;;;;;;;;;;4899679;29;20213;-92
2021/06/13 14:32:59;;;;;;;6.20;3.83;;;;;;;;;;4899749;29;20224;-89
2021/06/13 14:35:24;;;;;;;5.70;4.57;;;;;;;;;;4920072;29;20185;-88
2021/06/13 14:37:50;;;;;;;8.27;4.20;;;;;;;;;;4920579;29;20534;-89
2021/06/13 14:40:16;;;;;;;7.57;4.50;;;;;;;;;;4920515;29;20176;-89
2021/06/13 14:42:42;;;;;;;5.80;3.80;;;;;;;;;;4920657;29;20607;-88
2021/06/13 14:45:08;;;;;;;6.47;4.13;;;;;;;;;;4920534;29;20245;-89
2021/06/13 14:47:33;;;;;;;7.03;4.47;;;;;;;;;;4920306;29;20686;-89
2021/06/13 14:49:58;;;;;;;8.37;4.60;;;;;;;;;;4918597;29;20216;-89
2021/06/13 14:52:24;;;;;;;7.23;5.03;;;;;;;;;;4918979;29;20176;-90
2021/06/13 14:54:49;;;;;;;5.57;4.73;;;;;;;;;;4901844;29;20208;-89
2021/06/13 14:57:15;;;;;;;12.33;5.07;;;;;;;;;;4918465;29;20762;-91
2021/06/13 14:59:40;;;;;;;6.43;4.90;;;;;;;;;;4918198;29;20181;-88
2021/06/13 15:02:05;;;;;;;5.00;4.30;;;;;;;;;;4918964;29;20677;-89
2021/06/13 15:04:31;;;;;;;8.47;4.90;;;;;;;;;;4919018;29;20188;-89
2021/06/13 15:06:56;;;;;;;6.43;4.50;;;;;;;;;;4917830;29;20204;-88
2021/06/13 15:09:21;;;;;;;8.33;4.70;;;;;;;;;;4920230;29;20181;-89
2021/06/13 15:11:47;;;;;;;8.17;4.87;;;;;;;;;;4920344;29;20239;-89
2021/06/13 15:14:12;;;;;;;7.70;4.17;;;;;;;;;;4919168;29;20210;-91
2021/06/13 15:16:38;;;;;;;8.93;3.97;;;;;;;;;;4919989;29;20188;-90
2021/06/13 15:19:03;;;;;;;7.63;3.93;;;;;;;;;;4903719;29;20180;-90
2021/06/13 15:21:30;;;;;;;5.90;4.20;;;;;;;;;;4921156;29;20214;-90
2021/06/13 15:23:56;;;;;;;5.53;3.80;;;;;;;;;;4923648;29;20646;-90
2021/06/13 15:26:21;;;;;;;7.97;4.00;;;;;;;;;;4939459;29;20211;-90
2021/06/13 15:28:46;;;;;;;6.70;3.90;;;;;;;;;;4939638;29;20176;-88